createdAt,value
2022-10-14T00:01:23.335Z,7.40
2022-10-14T00:04:10.732Z,5.27
2022-10-14T00:06:59.536Z,7.87
2022-10-14T00:09:47.336Z,8.33
2022-10-14T00:12:35.589Z,14.57
2022-10-14T00:15:23.236Z,15.93
2022-10-14T00:18:11.191Z,5.60
2022-10-14T00:20:59.826Z,6.27
2022-10-14T00:23:48.874Z,6.73
2022-10-14T00:26:38.858Z,5.37
2022-10-14T00:29:26.276Z,5.50
2022-10-14T00:32:13.541Z,4.77
2022-10-14T00:35:00.940Z,7.20
2022-10-14T00:37:50.388Z,5.57
2022-10-14T00:40:39.670Z,4.67
2022-10-14T00:43:29.016Z,4.53
2022-10-14T00:46:16.307Z,5.20
2022-10-14T00:49:10.497Z,4.60
2022-10-14T00:52:02.508Z,5.60
2022-10-14T00:54:55.632Z,7.27
2022-10-14T00:57:45.390Z,6.67
2022-10-14T01:00:33.091Z,6.10
2022-10-14T01:03:24.393Z,4.83
2022-10-14T01:06:23.887Z,5.60
2022-10-14T01:09:25.354Z,5.10
2022-10-14T01:12:29.041Z,5.50
2022-10-14T01:15:30.189Z,6.30
2022-10-14T01:18:29.832Z,5.93
2022-10-14T01:21:28.825Z,7.43
2022-10-14T01:24:42.880Z,5.70
2022-10-14T01:28:13.492Z,4.33
2022-10-14T01:31:06.256Z,4.63
2022-10-14T01:33:58.150Z,5.60
2022-10-14T01:36:50.532Z,6.10
2022-10-14T01:39:44.028Z,4.87
2022-10-14T01:42:36.412Z,6.63
2022-10-14T01:45:26.941Z,5.60
2022-10-14T01:48:19.427Z,4.53
2022-10-14T01:51:13.819Z,5.43
2022-10-14T01:54:08.156Z,5.37
2022-10-14T01:57:00.608Z,6.50
2022-10-14T01:59:49.491Z,4.93
2022-10-14T02:02:39.122Z,4.77
2022-10-14T02:05:33.270Z,4.43
2022-10-14T02:08:34.303Z,4.70
2022-10-14T02:11:24.712Z,10.97
2022-10-14T02:14:29.645Z,4.70
2022-10-14T02:17:24.464Z,4.47
2022-10-14T02:20:22.705Z,4.80
2022-10-14T02:23:16.762Z,3.83
2022-10-14T02:26:05.384Z,5.17
2022-10-14T02:28:56.571Z,4.30
2022-10-14T02:31:46.862Z,4.40
2022-10-14T02:34:35.835Z,4.10
2022-10-14T02:37:24.676Z,4.07
2022-10-14T02:40:20.212Z,6.50
2022-10-14T02:43:10.007Z,6.30
2022-10-14T02:46:01.128Z,6.03
2022-10-14T02:48:48.516Z,5.33
2022-10-14T02:51:36.031Z,6.27
2022-10-14T02:54:23.561Z,6.40
2022-10-14T02:57:12.407Z,5.70
2022-10-14T02:59:59.901Z,6.30
2022-10-14T03:02:48.475Z,13.07
2022-10-14T03:05:38.642Z,5.90
2022-10-14T03:08:32.076Z,6.33
2022-10-14T03:11:21.874Z,4.60
2022-10-14T03:14:12.289Z,4.90
2022-10-14T03:16:59.967Z,4.63
2022-10-14T03:19:50.725Z,4.73
2022-10-14T03:22:37.983Z,5.50
2022-10-14T03:25:28.006Z,4.30
2022-10-14T03:28:28.512Z,4.47
2022-10-14T03:31:25.958Z,4.83
2022-10-14T03:34:39.437Z,4.87
2022-10-14T03:37:34.680Z,5.90
2022-10-14T03:40:23.222Z,5.10
2022-10-14T03:43:11.675Z,21.80
2022-10-14T03:46:08.116Z,5.67
2022-10-14T03:48:58.327Z,5.53
2022-10-14T03:51:45.782Z,5.30
2022-10-14T03:54:39.660Z,6.33
2022-10-14T03:57:27.192Z,6.93
2022-10-14T04:00:18.226Z,5.27
2022-10-14T04:03:11.298Z,5.77
2022-10-14T04:06:02.238Z,5.10
2022-10-14T04:08:51.017Z,10.97
2022-10-14T04:11:48.555Z,5.60
2022-10-14T04:14:57.020Z,5.10
2022-10-14T04:17:45.345Z,16.50
2022-10-14T04:20:35.099Z,7.33
2022-10-14T04:23:24.831Z,4.37
2022-10-14T04:26:16.853Z,4.13
2022-10-14T04:29:06.379Z,5.10
2022-10-14T04:32:01.786Z,4.97
2022-10-14T04:34:50.089Z,4.73
2022-10-14T04:37:40.857Z,5.17
2022-10-14T04:40:47.968Z,4.63
2022-10-14T04:43:35.649Z,4.33
2022-10-14T04:46:38.135Z,4.07
2022-10-14T04:49:25.992Z,6.67
2022-10-14T04:52:28.144Z,6.90
2022-10-14T04:55:25.782Z,14.97
2022-10-14T04:58:14.742Z,12.47
2022-10-14T05:01:04.202Z,6.07
2022-10-14T05:03:58.525Z,5.50
2022-10-14T05:06:46.597Z,4.90
2022-10-14T05:09:36.122Z,4.37
2022-10-14T05:12:26.530Z,4.10
2022-10-14T05:15:21.653Z,6.23
2022-10-14T05:18:22.110Z,3.90
2022-10-14T05:21:30.809Z,5.77
2022-10-14T05:24:34.347Z,9.50
2022-10-14T05:27:22.849Z,5.60
2022-10-14T05:30:13.959Z,5.73
2022-10-14T05:33:08.194Z,6.93
2022-10-14T05:35:59.428Z,13.50
2022-10-14T05:38:51.711Z,5.97
2022-10-14T05:41:42.798Z,20.40
2022-10-14T05:44:31.022Z,13.13
2022-10-14T05:47:19.280Z,25.50
2022-10-14T05:50:11.334Z,22.37
2022-10-14T05:52:58.479Z,29.67
2022-10-14T05:55:51.972Z,10.13
2022-10-14T05:58:42.885Z,13.97
2022-10-14T06:01:31.428Z,19.23
2022-10-14T06:04:00.362Z,41.23
2022-10-14T06:06:31.064Z,24.77
2022-10-14T06:09:00.127Z,18.03
2022-10-14T06:11:29.182Z,6.87
2022-10-14T06:13:58.167Z,7.83
2022-10-14T06:16:27.368Z,10.10
2022-10-14T06:18:56.439Z,7.97
2022-10-14T06:21:26.180Z,27.70
2022-10-14T06:23:56.680Z,11.57
2022-10-14T06:26:25.710Z,10.17
2022-10-14T06:28:54.977Z,7.00
2022-10-14T06:31:27.435Z,6.73
2022-10-14T06:33:59.003Z,60.30
2022-10-14T06:36:28.093Z,46.43
2022-10-14T06:38:58.629Z,43.10
2022-10-14T06:41:27.982Z,32.93
2022-10-14T06:43:57.132Z,10.40
2022-10-14T06:46:26.468Z,10.80
2022-10-14T06:48:55.473Z,6.90
2022-10-14T06:51:24.498Z,6.90
2022-10-14T06:53:53.603Z,6.53
2022-10-14T06:56:24.071Z,7.90
2022-10-14T06:58:55.532Z,7.13
2022-10-14T07:01:24.923Z,6.93
2022-10-14T07:03:56.597Z,6.43
2022-10-14T07:06:26.160Z,8.63
2022-10-14T07:08:55.146Z,6.23
2022-10-14T07:11:25.494Z,6.57
2022-10-14T07:13:54.497Z,9.87
2022-10-14T07:16:23.646Z,19.23
2022-10-14T07:18:52.769Z,8.90
2022-10-14T07:21:24.705Z,22.80
2022-10-14T07:23:55.725Z,23.97
2022-10-14T07:26:27.004Z,16.10
2022-10-14T07:28:57.048Z,13.57
2022-10-14T07:31:27.816Z,12.40
2022-10-14T07:33:57.777Z,16.57
2022-10-14T07:36:27.698Z,42.80
2022-10-14T07:38:57.636Z,21.87
2022-10-14T07:41:29.326Z,11.47
2022-10-14T07:44:05.408Z,10.83
2022-10-14T07:46:38.782Z,31.80
2022-10-14T07:49:11.933Z,15.97
2022-10-14T07:51:42.536Z,20.10
2022-10-14T07:54:17.338Z,8.13
2022-10-14T07:56:49.721Z,7.80
2022-10-14T07:59:20.514Z,8.70
2022-10-14T08:01:51.631Z,7.93
2022-10-14T08:04:21.466Z,7.27
2022-10-14T08:06:51.329Z,7.27
2022-10-14T08:09:21.358Z,7.77
2022-10-14T08:11:52.276Z,15.03
2022-10-14T08:14:22.123Z,7.40
2022-10-14T08:16:52.047Z,6.03
2022-10-14T08:19:21.989Z,6.00
2022-10-14T08:21:53.457Z,25.50
2022-10-14T08:24:24.499Z,24.27
2022-10-14T08:26:58.234Z,7.23
2022-10-14T08:29:28.227Z,7.30
2022-10-14T08:31:58.092Z,8.80
2022-10-14T08:34:28.046Z,6.30
2022-10-14T08:36:57.564Z,5.90
2022-10-14T08:39:26.899Z,5.63
2022-10-14T08:42:24.756Z,5.50
2022-10-14T08:44:58.468Z,5.93
2022-10-14T08:47:37.021Z,7.37
2022-10-14T08:50:21.078Z,27.10
2022-10-14T08:52:55.350Z,5.73
2022-10-14T08:55:34.994Z,5.67
2022-10-14T08:58:14.350Z,5.70
2022-10-14T09:00:47.063Z,5.43
2022-10-14T09:03:22.688Z,17.10
2022-10-14T09:05:58.758Z,5.77
2022-10-14T09:08:34.809Z,6.70
2022-10-14T09:11:04.210Z,8.30
2022-10-14T09:13:39.872Z,15.30
2022-10-14T09:16:17.676Z,8.13
2022-10-14T09:18:54.587Z,5.53
2022-10-14T09:21:51.600Z,6.03
2022-10-14T09:24:24.462Z,6.33
2022-10-14T09:26:59.475Z,6.57
2022-10-14T09:29:32.536Z,6.67
2022-10-14T09:32:08.873Z,4.80
2022-10-14T09:34:41.311Z,6.90
2022-10-14T09:37:27.758Z,5.80
2022-10-14T09:40:01.071Z,6.63
2022-10-14T09:42:43.574Z,5.30
2022-10-14T09:45:17.008Z,5.03
2022-10-14T09:47:53.330Z,5.50
2022-10-14T09:50:26.924Z,6.13
2022-10-14T09:53:02.791Z,6.43
2022-10-14T09:55:32.685Z,5.13
2022-10-14T09:58:15.056Z,5.27
2022-10-14T10:00:48.025Z,5.13
2022-10-14T10:03:30.111Z,4.87
2022-10-14T10:06:06.975Z,6.00
2022-10-14T10:08:37.802Z,7.37
2022-10-14T10:11:10.529Z,15.47
2022-10-14T10:13:44.906Z,6.03
2022-10-14T10:16:25.246Z,6.00
2022-10-14T10:18:57.323Z,16.60
2022-10-14T10:21:30.101Z,23.03
2022-10-14T10:24:02.436Z,6.57
2022-10-14T10:26:34.266Z,6.23
2022-10-14T10:29:06.267Z,3.60
2022-10-14T10:31:56.887Z,34.90
2022-10-14T10:35:08.459Z,3.13
2022-10-14T10:37:49.353Z,4.13
2022-10-14T10:40:37.018Z,7.57
2022-10-14T10:43:31.832Z,3.60
2022-10-14T10:46:23.720Z,3.03
2022-10-14T10:49:05.380Z,3.70
2022-10-14T10:51:45.269Z,3.37
2022-10-14T10:54:33.178Z,2.70
2022-10-14T10:57:11.621Z,2.90
2022-10-14T10:59:57.769Z,4.37
2022-10-14T11:03:10.444Z,3.13
2022-10-14T11:05:52.033Z,3.47
2022-10-14T11:09:09.454Z,2.93
2022-10-14T11:12:03.856Z,3.77
2022-10-14T11:15:04.437Z,2.83
2022-10-14T11:17:42.953Z,10.50
2022-10-14T11:20:24.897Z,3.07
2022-10-14T11:23:26.066Z,3.50
2022-10-14T11:26:00.945Z,2.67
2022-10-14T11:28:40.181Z,3.60
2022-10-14T11:31:20.684Z,2.60
2022-10-14T11:34:08.681Z,3.70
2022-10-14T11:36:49.587Z,2.93
2022-10-14T11:39:41.430Z,4.00
2022-10-14T11:42:30.231Z,3.33
2022-10-14T11:45:23.557Z,4.17
2022-10-14T11:48:10.201Z,4.20
2022-10-14T11:50:44.766Z,2.97
2022-10-14T11:53:22.775Z,7.40
2022-10-14T11:56:02.673Z,2.60
2022-10-14T11:58:36.436Z,4.40
2022-10-14T12:01:07.961Z,2.83
2022-10-14T12:03:51.132Z,4.23
2022-10-14T12:06:26.141Z,3.30
2022-10-14T12:09:00.338Z,3.90
2022-10-14T12:11:36.346Z,5.77
2022-10-14T12:14:12.517Z,9.73
2022-10-14T12:16:44.816Z,10.27
2022-10-14T12:19:21.955Z,5.00
2022-10-14T12:21:58.478Z,3.67
2022-10-14T12:24:34.253Z,3.73
2022-10-14T12:27:06.831Z,4.70
2022-10-14T12:29:40.168Z,8.70
2022-10-14T12:32:24.565Z,9.63
2022-10-14T12:34:55.326Z,5.87
2022-10-14T12:37:54.264Z,6.53
2022-10-14T12:40:32.776Z,3.50
2022-10-14T12:43:13.542Z,4.07
2022-10-14T12:46:00.996Z,5.20
2022-10-14T12:48:34.944Z,6.20
2022-10-14T12:51:14.736Z,7.73
2022-10-14T12:53:56.418Z,5.97
2022-10-14T12:56:55.369Z,6.40
2022-10-14T12:59:31.396Z,4.50
2022-10-14T13:02:05.343Z,3.43
2022-10-14T13:04:35.263Z,3.30
2022-10-14T13:07:41.241Z,10.60
2022-10-14T13:10:52.914Z,11.60
2022-10-14T13:13:52.756Z,11.63
2022-10-14T13:17:01.086Z,3.10
2022-10-14T13:19:46.065Z,3.67
2022-10-14T13:22:40.053Z,2.37
2022-10-14T13:25:19.727Z,2.40
2022-10-14T13:28:12.726Z,2.70
2022-10-14T13:30:56.404Z,9.60
2022-10-14T13:33:36.788Z,3.40
2022-10-14T13:36:16.097Z,2.70
2022-10-14T13:38:55.093Z,3.47
2022-10-14T13:41:30.720Z,3.67
2022-10-14T13:44:01.640Z,2.70
2022-10-14T13:46:36.358Z,2.90
2022-10-14T13:49:20.727Z,7.97
2022-10-14T13:51:53.518Z,3.20
2022-10-14T13:54:25.020Z,5.20
2022-10-14T14:02:47.984Z,4.97
2022-10-14T14:05:23.729Z,3.23
2022-10-14T14:11:15.003Z,4.70
2022-10-14T14:13:56.106Z,4.43
2022-10-14T14:16:33.291Z,2.73
2022-10-14T14:19:08.907Z,3.50
2022-10-14T14:21:40.346Z,2.90
2022-10-14T14:24:25.603Z,3.43
2022-10-14T14:26:57.052Z,8.23
2022-10-14T14:29:29.907Z,2.27
2022-10-14T14:32:09.028Z,2.53
2022-10-14T14:34:40.828Z,2.13
2022-10-14T14:40:21.615Z,1.80
2022-10-14T14:42:53.877Z,2.90
2022-10-14T14:45:26.688Z,2.43
2022-10-14T14:47:59.050Z,2.83
2022-10-14T14:50:31.786Z,3.13
2022-10-14T14:53:05.876Z,2.50
2022-10-14T14:55:38.551Z,2.60
2022-10-14T14:58:28.114Z,3.47
2022-10-14T15:00:58.053Z,2.50
2022-10-14T15:03:30.761Z,2.90
2022-10-14T15:06:03.258Z,3.07
2022-10-14T15:08:37.969Z,3.07
2022-10-14T15:11:07.537Z,2.33
2022-10-14T15:13:52.831Z,4.37
2022-10-14T15:16:41.553Z,4.03
2022-10-14T15:19:37.362Z,3.50
2022-10-14T15:22:34.176Z,2.23
2022-10-14T15:25:13.634Z,3.27
2022-10-14T15:27:53.468Z,5.10
2022-10-14T15:30:51.853Z,2.90
2022-10-14T15:33:23.395Z,3.37
2022-10-14T15:35:58.055Z,3.67
2022-10-14T15:38:27.999Z,6.53
2022-10-14T15:40:58.436Z,5.50
2022-10-14T15:43:28.665Z,6.87
2022-10-14T15:46:17.767Z,4.40
2022-10-14T15:48:50.643Z,3.57
2022-10-14T15:51:21.733Z,2.63
2022-10-14T15:53:51.809Z,1.70
2022-10-14T15:56:22.233Z,1.93
2022-10-14T15:58:51.401Z,1.77
2022-10-14T16:01:23.076Z,1.60
2022-10-14T16:03:53.277Z,1.60
2022-10-14T16:06:24.518Z,1.33
2022-10-14T16:08:53.548Z,2.20
2022-10-14T16:11:27.527Z,1.63
2022-10-14T16:13:56.837Z,1.83
2022-10-14T16:16:32.781Z,1.87
2022-10-14T16:19:03.652Z,1.73
2022-10-14T16:21:33.200Z,1.80
2022-10-14T16:24:04.281Z,1.93
2022-10-14T16:26:34.807Z,1.50
2022-10-14T16:29:03.995Z,3.00
2022-10-14T16:31:33.113Z,1.43
2022-10-14T16:34:02.653Z,2.43
2022-10-14T16:36:31.779Z,3.93
2022-10-14T16:39:02.104Z,3.63
2022-10-14T16:41:31.346Z,5.00
2022-10-14T16:44:01.754Z,2.38
2022-10-14T16:46:44.707Z,3.30
2022-10-14T16:49:14.294Z,1.80
2022-10-14T16:51:44.198Z,2.10
2022-10-14T16:54:13.493Z,1.67
2022-10-14T16:56:55.036Z,2.23
2022-10-14T16:59:26.497Z,1.37
2022-10-14T17:01:56.646Z,1.37
2022-10-14T17:04:26.855Z,2.07
2022-10-14T17:07:07.368Z,3.03
2022-10-14T17:09:38.785Z,1.80
2022-10-14T17:12:13.923Z,1.87
2022-10-14T17:14:44.637Z,2.03
2022-10-14T17:17:13.958Z,1.80
2022-10-14T17:19:43.081Z,1.67
2022-10-14T17:22:13.306Z,3.13
2022-10-14T17:24:42.315Z,4.50
2022-10-14T17:27:11.752Z,1.70
2022-10-14T17:29:40.781Z,1.70
2022-10-14T17:32:11.195Z,4.50
2022-10-14T17:34:40.171Z,1.83
2022-10-14T17:39:43.364Z,1.73
2022-10-14T17:42:12.431Z,4.97
2022-10-14T17:44:43.717Z,1.53
2022-10-14T17:47:14.482Z,2.90
2022-10-14T17:49:43.510Z,2.00
2022-10-14T17:52:12.756Z,2.10
2022-10-14T17:54:41.837Z,3.93
2022-10-14T17:57:10.869Z,2.73
2022-10-14T17:59:39.906Z,2.53
2022-10-14T18:02:11.151Z,1.50
2022-10-14T18:04:41.682Z,1.10
2022-10-14T18:07:12.073Z,2.70
2022-10-14T18:09:41.018Z,2.20
2022-10-14T18:12:10.499Z,1.10
2022-10-14T18:14:40.687Z,1.07
2022-10-14T18:17:12.463Z,1.10
2022-10-14T18:19:46.105Z,1.23
2022-10-14T18:22:18.888Z,1.23
2022-10-14T18:24:48.494Z,2.30
2022-10-14T18:27:17.508Z,1.50
2022-10-14T18:29:46.562Z,1.43
2022-10-14T18:32:15.567Z,1.73
2022-10-14T18:34:46.293Z,2.10
2022-10-14T18:37:15.327Z,1.57
2022-10-14T18:39:44.703Z,2.87
2022-10-14T18:42:17.117Z,1.40
2022-10-14T18:44:49.040Z,1.30
2022-10-14T18:47:18.093Z,2.13
2022-10-14T18:49:49.721Z,1.50
2022-10-14T18:52:20.847Z,1.87
2022-10-14T18:54:50.049Z,1.90
2022-10-14T18:57:19.076Z,1.23
2022-10-14T18:59:48.409Z,0.83
2022-10-14T19:02:17.885Z,0.77
2022-10-14T19:04:48.444Z,0.80
2022-10-14T19:07:17.446Z,1.03
2022-10-14T19:09:46.491Z,1.47
2022-10-14T19:12:29.649Z,0.80
2022-10-14T19:14:58.630Z,0.70
2022-10-14T19:17:27.697Z,0.63
2022-10-14T19:20:00.037Z,1.00
2022-10-14T19:22:29.077Z,0.87
2022-10-14T19:24:58.036Z,0.47
2022-10-14T19:27:27.035Z,1.00
2022-10-14T19:29:56.113Z,1.03
2022-10-14T19:32:25.104Z,1.43
2022-10-14T19:34:54.133Z,1.13
2022-10-14T19:37:25.003Z,2.20
2022-10-14T19:39:54.328Z,0.90
2022-10-14T19:42:23.316Z,0.97
2022-10-14T19:44:52.336Z,1.00
2022-10-14T19:47:21.591Z,2.30
2022-10-14T19:49:50.861Z,3.03
2022-10-14T19:52:19.876Z,1.47
2022-10-14T19:54:50.255Z,1.10
2022-10-14T19:57:19.321Z,1.10
2022-10-14T19:59:48.383Z,1.30
2022-10-14T20:02:17.360Z,1.20
2022-10-14T20:05:32.864Z,1.20
2022-10-14T20:08:20.512Z,1.47
2022-10-14T20:11:12.565Z,1.47
2022-10-14T20:14:00.624Z,1.23
2022-10-14T20:16:52.183Z,0.93
2022-10-14T20:19:43.215Z,0.70
2022-10-14T20:22:30.625Z,1.20
2022-10-14T20:25:18.392Z,2.40
2022-10-14T20:28:07.066Z,0.40
2022-10-14T20:30:54.669Z,0.50
2022-10-14T20:33:42.144Z,1.70
2022-10-14T20:36:29.879Z,0.77
2022-10-14T20:39:17.598Z,0.40
2022-10-14T20:42:08.048Z,0.97
2022-10-14T20:44:56.709Z,0.93
2022-10-14T20:47:44.195Z,0.93
2022-10-14T20:50:31.616Z,0.60
2022-10-14T20:53:18.895Z,0.50
2022-10-14T20:56:09.132Z,0.60
2022-10-14T20:58:57.258Z,0.77
2022-10-14T21:01:46.450Z,0.43
2022-10-14T21:04:33.871Z,0.60
2022-10-14T21:07:22.805Z,0.30
2022-10-14T21:10:10.835Z,0.40
2022-10-14T21:12:58.253Z,0.40
2022-10-14T21:15:45.628Z,0.47
2022-10-14T21:18:34.290Z,0.30
2022-10-14T21:21:22.368Z,1.90
2022-10-14T21:24:13.252Z,0.53
2022-10-14T21:27:00.729Z,0.80
2022-10-14T21:29:50.154Z,0.40
2022-10-14T21:32:37.682Z,0.30
2022-10-14T21:35:27.227Z,0.80
2022-10-14T21:38:14.704Z,1.43
2022-10-14T21:41:03.694Z,0.33
2022-10-14T21:43:51.301Z,1.03
2022-10-14T21:46:38.800Z,0.50
2022-10-14T21:49:26.314Z,0.67
2022-10-14T21:52:16.871Z,0.63
2022-10-14T21:55:04.175Z,0.73
2022-10-14T21:57:52.469Z,0.70
2022-10-14T22:00:39.678Z,0.70
2022-10-14T22:03:27.097Z,0.63
2022-10-14T22:06:17.421Z,0.87
2022-10-14T22:09:08.855Z,1.03
2022-10-14T22:11:56.526Z,0.80
2022-10-14T22:14:43.798Z,0.50
2022-10-14T22:17:31.159Z,0.70
2022-10-14T22:20:18.812Z,2.90
2022-10-14T22:23:06.023Z,0.80
2022-10-14T22:25:54.689Z,1.20
2022-10-14T22:28:42.604Z,0.77
2022-10-14T22:31:32.920Z,0.77
2022-10-14T22:34:20.518Z,1.50
2022-10-14T22:37:07.680Z,0.40
2022-10-14T22:39:55.255Z,1.30
2022-10-14T22:42:46.584Z,0.40
2022-10-14T22:45:35.351Z,1.23
2022-10-14T22:48:22.807Z,0.40
2022-10-14T22:51:12.416Z,0.20
2022-10-14T22:54:00.599Z,0.30
2022-10-14T22:56:47.952Z,0.37
2022-10-14T22:59:36.742Z,0.20
2022-10-14T23:02:24.405Z,0.43
2022-10-14T23:05:12.227Z,1.63
2022-10-14T23:07:59.596Z,1.60
2022-10-14T23:10:46.992Z,0.30
2022-10-14T23:13:35.079Z,0.50
2022-10-14T23:16:26.376Z,0.20
2022-10-14T23:19:13.678Z,0.50
2022-10-14T23:22:01.028Z,0.20
2022-10-14T23:24:48.141Z,1.70
2022-10-14T23:27:36.335Z,0.40
2022-10-14T23:30:23.709Z,0.20
2022-10-14T23:33:12.651Z,1.80
2022-10-14T23:36:05.286Z,0.20
2022-10-14T23:38:53.465Z,0.30
2022-10-14T23:41:40.833Z,0.30
2022-10-14T23:44:28.293Z,0.20
2022-10-14T23:47:15.789Z,1.13
2022-10-14T23:50:04.710Z,0.20
2022-10-14T23:52:52.077Z,0.50
2022-10-14T23:55:39.752Z,0.27
2022-10-14T23:58:29.754Z,0.30
